Novo Planalto, Brazil
Current Conditions -  °F | °C
As of 12:00 AM on Friday 21 Nov 2014 (Local Time) from SBBR Reporting Station
Clear Clear  
Wind Chill: 75°   Ceiling: Unl
Heat Index: 75°   Visibility: 6mi
Dew Point: 55°   Wind: 5mph
Humidity: 50%   Direction: 180°S
Pressure: 30.09"   Gusts: NA
Location:  13.24°S, 49.5°W
Report Text: SBBR 210200Z 18004KT CAVOK 24/13 Q1019
Loading
Personal Weather Stations






























Interactive Weather Map New forecast layout! Learn more

10-Day Weather Forecast

Advertisements
Track Severe Weather on mobile